sensor_id;sensor_type;location;lat;lon;timestamp;P1;durP1;ratioP1;P2;durP2;ratioP2
7497;SDS011;3790;48.806;9.140;2023-02-01T00:00:23;3.77;;;2.00;;
7497;SDS011;3790;48.806;9.140;2023-02-01T00:05:24;3.90;;;2.20;;
7497;SDS011;3790;48.806;9.140;2023-02-01T00:10:25;2.60;;;1.63;;
7497;SDS011;3790;48.806;9.140;2023-02-01T00:15:25;3.33;;;1.93;;
7497;SDS011;3790;48.806;9.140;2023-02-01T00:20:26;3.80;;;1.80;;
7497;SDS011;3790;48.806;9.140;2023-02-01T00:25:26;3.10;;;1.70;;
7497;SDS011;3790;48.806;9.140;2023-02-01T00:30:27;2.07;;;1.23;;
7497;SDS011;3790;48.806;9.140;2023-02-01T00:35:27;3.63;;;1.70;;
7497;SDS011;3790;48.806;9.140;2023-02-01T00:40:28;2.77;;;1.47;;
7497;SDS011;3790;48.806;9.140;2023-02-01T00:45:28;2.80;;;1.57;;
7497;SDS011;3790;48.806;9.140;2023-02-01T00:50:29;2.80;;;1.40;;
7497;SDS011;3790;48.806;9.140;2023-02-01T00:55:29;2.43;;;1.43;;
7497;SDS011;3790;48.806;9.140;2023-02-01T01:00:30;2.40;;;1.40;;
7497;SDS011;3790;48.806;9.140;2023-02-01T01:05:30;4.20;;;1.57;;
7497;SDS011;3790;48.806;9.140;2023-02-01T01:10:32;2.50;;;1.20;;
7497;SDS011;3790;48.806;9.140;2023-02-01T01:15:36;2.57;;;1.40;;
7497;SDS011;3790;48.806;9.140;2023-02-01T01:20:38;3.23;;;1.57;;
7497;SDS011;3790;48.806;9.140;2023-02-01T01:25:40;1.67;;;1.00;;
7497;SDS011;3790;48.806;9.140;2023-02-01T01:30:40;1.33;;;0.90;;
7497;SDS011;3790;48.806;9.140;2023-02-01T01:35:41;2.73;;;1.00;;
7497;SDS011;3790;48.806;9.140;2023-02-01T01:40:44;2.00;;;1.10;;
7497;SDS011;3790;48.806;9.140;2023-02-01T01:45:46;1.27;;;0.90;;
7497;SDS011;3790;48.806;9.140;2023-02-01T01:50:48;1.37;;;0.73;;
7497;SDS011;3790;48.806;9.140;2023-02-01T01:55:54;2.27;;;1.03;;
7497;SDS011;3790;48.806;9.140;2023-02-01T02:00:56;2.43;;;1.27;;
7497;SDS011;3790;48.806;9.140;2023-02-01T02:05:57;1.43;;;0.83;;
7497;SDS011;3790;48.806;9.140;2023-02-01T02:10:58;1.17;;;0.70;;
7497;SDS011;3790;48.806;9.140;2023-02-01T02:42:34;1.73;;;1.10;;
7497;SDS011;3790;48.806;9.140;2023-02-01T02:48:25;1.33;;;0.90;;
7497;SDS011;3790;48.806;9.140;2023-02-01T02:53:43;2.30;;;1.50;;
7497;SDS011;3790;48.806;9.140;2023-02-01T02:59:24;1.73;;;1.03;;
7497;SDS011;3790;48.806;9.140;2023-02-01T03:04:46;2.53;;;1.47;;
7497;SDS011;3790;48.806;9.140;2023-02-01T03:09:46;2.43;;;1.33;;
7497;SDS011;3790;48.806;9.140;2023-02-01T03:14:49;2.10;;;1.13;;
7497;SDS011;3790;48.806;9.140;2023-02-01T03:19:54;1.87;;;1.10;;
7497;SDS011;3790;48.806;9.140;2023-02-01T03:25:03;2.17;;;1.23;;
7497;SDS011;3790;48.806;9.140;2023-02-01T03:35:25;2.00;;;1.20;;
7497;SDS011;3790;48.806;9.140;2023-02-01T03:40:34;1.50;;;0.73;;
7497;SDS011;3790;48.806;9.140;2023-02-01T03:45:38;2.50;;;1.10;;
7497;SDS011;3790;48.806;9.140;2023-02-01T03:50:44;2.20;;;1.13;;
7497;SDS011;3790;48.806;9.140;2023-02-01T03:55:49;2.90;;;1.47;;
7497;SDS011;3790;48.806;9.140;2023-02-01T04:00:56;1.70;;;1.10;;
7497;SDS011;3790;48.806;9.140;2023-02-01T04:05:58;2.00;;;1.30;;
7497;SDS011;3790;48.806;9.140;2023-02-01T04:10:59;2.60;;;1.33;;
7497;SDS011;3790;48.806;9.140;2023-02-01T04:15:59;3.00;;;1.47;;
7497;SDS011;3790;48.806;9.140;2023-02-01T04:21:00;1.87;;;1.07;;
7497;SDS011;3790;48.806;9.140;2023-02-01T04:26:02;2.80;;;1.20;;
7497;SDS011;3790;48.806;9.140;2023-02-01T04:31:04;1.53;;;0.93;;
7497;SDS011;3790;48.806;9.140;2023-02-01T04:36:04;2.00;;;1.10;;
7497;SDS011;3790;48.806;9.140;2023-02-01T04:41:05;1.43;;;0.90;;
7497;SDS011;3790;48.806;9.140;2023-02-01T04:46:05;3.13;;;1.30;;
7497;SDS011;3790;48.806;9.140;2023-02-01T04:51:06;1.53;;;1.00;;
7497;SDS011;3790;48.806;9.140;2023-02-01T04:56:07;2.17;;;1.10;;
7497;SDS011;3790;48.806;9.140;2023-02-01T05:01:07;1.57;;;0.83;;
7497;SDS011;3790;48.806;9.140;2023-02-01T05:06:08;1.57;;;1.17;;
7497;SDS011;3790;48.806;9.140;2023-02-01T05:11:09;1.03;;;0.70;;
7497;SDS011;3790;48.806;9.140;2023-02-01T05:16:32;1.73;;;1.00;;
7497;SDS011;3790;48.806;9.140;2023-02-01T05:21:32;1.23;;;0.73;;
7497;SDS011;3790;48.806;9.140;2023-02-01T05:26:33;1.33;;;0.80;;
7497;SDS011;3790;48.806;9.140;2023-02-01T05:31:33;1.50;;;0.63;;
7497;SDS011;3790;48.806;9.140;2023-02-01T05:36:34;3.33;;;0.93;;
7497;SDS011;3790;48.806;9.140;2023-02-01T05:41:34;3.13;;;1.00;;
7497;SDS011;3790;48.806;9.140;2023-02-01T05:46:35;1.13;;;0.70;;
7497;SDS011;3790;48.806;9.140;2023-02-01T05:51:36;2.13;;;1.20;;
7497;SDS011;3790;48.806;9.140;2023-02-01T05:56:36;2.37;;;1.27;;
7497;SDS011;3790;48.806;9.140;2023-02-01T06:01:37;1.93;;;1.00;;
7497;SDS011;3790;48.806;9.140;2023-02-01T06:06:37;4.00;;;1.17;;
7497;SDS011;3790;48.806;9.140;2023-02-01T06:11:38;2.37;;;1.17;;
7497;SDS011;3790;48.806;9.140;2023-02-01T06:16:40;1.33;;;0.93;;
7497;SDS011;3790;48.806;9.140;2023-02-01T06:21:40;2.07;;;1.10;;
7497;SDS011;3790;48.806;9.140;2023-02-01T06:26:41;2.27;;;1.10;;
7497;SDS011;3790;48.806;9.140;2023-02-01T06:31:41;1.97;;;1.17;;
7497;SDS011;3790;48.806;9.140;2023-02-01T06:36:42;1.87;;;1.07;;
7497;SDS011;3790;48.806;9.140;2023-02-01T06:41:46;2.47;;;1.13;;
7497;SDS011;3790;48.806;9.140;2023-02-01T06:46:48;2.20;;;1.40;;
7497;SDS011;3790;48.806;9.140;2023-02-01T06:51:48;3.83;;;1.43;;
7497;SDS011;3790;48.806;9.140;2023-02-01T06:56:49;3.50;;;1.33;;
7497;SDS011;3790;48.806;9.140;2023-02-01T07:01:49;3.33;;;1.57;;
7497;SDS011;3790;48.806;9.140;2023-02-01T07:06:50;2.80;;;1.50;;
7497;SDS011;3790;48.806;9.140;2023-02-01T07:11:50;3.10;;;1.50;;
7497;SDS011;3790;48.806;9.140;2023-02-01T07:16:51;3.47;;;1.70;;
7497;SDS011;3790;48.806;9.140;2023-02-01T07:21:51;3.43;;;1.73;;
7497;SDS011;3790;48.806;9.140;2023-02-01T07:26:52;4.50;;;1.80;;
7497;SDS011;3790;48.806;9.140;2023-02-01T07:31:52;4.20;;;1.60;;
7497;SDS011;3790;48.806;9.140;2023-02-01T07:36:53;4.00;;;1.60;;
7497;SDS011;3790;48.806;9.140;2023-02-01T07:41:54;2.87;;;1.57;;
7497;SDS011;3790;48.806;9.140;2023-02-01T07:46:54;4.03;;;1.60;;
7497;SDS011;3790;48.806;9.140;2023-02-01T07:51:55;4.40;;;1.90;;
7497;SDS011;3790;48.806;9.140;2023-02-01T07:56:56;3.43;;;1.70;;
7497;SDS011;3790;48.806;9.140;2023-02-01T08:01:56;5.07;;;2.33;;
7497;SDS011;3790;48.806;9.140;2023-02-01T08:06:57;3.60;;;1.80;;
7497;SDS011;3790;48.806;9.140;2023-02-01T08:11:57;4.37;;;1.67;;
7497;SDS011;3790;48.806;9.140;2023-02-01T08:16:58;4.23;;;2.00;;
7497;SDS011;3790;48.806;9.140;2023-02-01T08:21:58;3.83;;;1.67;;
7497;SDS011;3790;48.806;9.140;2023-02-01T08:27:00;6.77;;;2.20;;
7497;SDS011;3790;48.806;9.140;2023-02-01T08:32:02;5.50;;;1.93;;
7497;SDS011;3790;48.806;9.140;2023-02-01T08:37:02;10.33;;;2.30;;
7497;SDS011;3790;48.806;9.140;2023-02-01T08:42:03;5.37;;;1.70;;
7497;SDS011;3790;48.806;9.140;2023-02-01T08:47:22;6.60;;;1.90;;
7497;SDS011;3790;48.806;9.140;2023-02-01T08:52:23;3.67;;;1.80;;
7497;SDS011;3790;48.806;9.140;2023-02-01T08:57:23;4.87;;;1.93;;
7497;SDS011;3790;48.806;9.140;2023-02-01T09:02:24;4.53;;;2.03;;
7497;SDS011;3790;48.806;9.140;2023-02-01T09:07:25;3.07;;;1.67;;
7497;SDS011;3790;48.806;9.140;2023-02-01T09:12:25;4.47;;;1.93;;
7497;SDS011;3790;48.806;9.140;2023-02-01T09:17:30;3.50;;;1.73;;
7497;SDS011;3790;48.806;9.140;2023-02-01T09:22:30;4.47;;;2.03;;
7497;SDS011;3790;48.806;9.140;2023-02-01T09:27:31;4.20;;;2.00;;
7497;SDS011;3790;48.806;9.140;2023-02-01T09:32:31;4.73;;;2.30;;
7497;SDS011;3790;48.806;9.140;2023-02-01T09:37:32;5.90;;;2.17;;
7497;SDS011;3790;48.806;9.140;2023-02-01T09:48:11;4.87;;;1.70;;
7497;SDS011;3790;48.806;9.140;2023-02-01T09:53:21;5.90;;;2.17;;
7497;SDS011;3790;48.806;9.140;2023-02-01T09:58:41;6.90;;;2.30;;
7497;SDS011;3790;48.806;9.140;2023-02-01T10:03:45;4.07;;;2.40;;
7497;SDS011;3790;48.806;9.140;2023-02-01T10:08:54;9.20;;;2.60;;
7497;SDS011;3790;48.806;9.140;2023-02-01T10:14:24;9.37;;;2.40;;
7497;SDS011;3790;48.806;9.140;2023-02-01T10:24:56;5.53;;;2.30;;
7497;SDS011;3790;48.806;9.140;2023-02-01T10:30:18;5.20;;;2.30;;
7497;SDS011;3790;48.806;9.140;2023-02-01T10:35:22;7.27;;;2.40;;
7497;SDS011;3790;48.806;9.140;2023-02-01T10:40:28;9.03;;;2.73;;
7497;SDS011;3790;48.806;9.140;2023-02-01T10:45:29;5.03;;;2.50;;
7497;SDS011;3790;48.806;9.140;2023-02-01T10:50:44;5.23;;;2.10;;
7497;SDS011;3790;48.806;9.140;2023-02-01T10:55:58;4.13;;;1.93;;
7497;SDS011;3790;48.806;9.140;2023-02-01T11:01:07;9.47;;;2.33;;
7497;SDS011;3790;48.806;9.140;2023-02-01T11:11:22;7.20;;;2.20;;
7497;SDS011;3790;48.806;9.140;2023-02-01T11:16:28;6.13;;;2.37;;
7497;SDS011;3790;48.806;9.140;2023-02-01T11:21:37;5.80;;;2.63;;
7497;SDS011;3790;48.806;9.140;2023-02-01T11:26:39;5.93;;;2.20;;
7497;SDS011;3790;48.806;9.140;2023-02-01T11:31:41;7.00;;;2.27;;
7497;SDS011;3790;48.806;9.140;2023-02-01T11:36:44;4.67;;;2.13;;
7497;SDS011;3790;48.806;9.140;2023-02-01T11:42:11;7.77;;;2.13;;
7497;SDS011;3790;48.806;9.140;2023-02-01T11:47:29;5.90;;;2.10;;
7497;SDS011;3790;48.806;9.140;2023-02-01T12:08:31;4.93;;;1.70;;
7497;SDS011;3790;48.806;9.140;2023-02-01T12:40:53;4.00;;;1.60;;
7497;SDS011;3790;48.806;9.140;2023-02-01T12:46:07;6.83;;;2.23;;
7497;SDS011;3790;48.806;9.140;2023-02-01T12:51:14;7.20;;;2.20;;
7497;SDS011;3790;48.806;9.140;2023-02-01T12:56:22;8.83;;;2.90;;
7497;SDS011;3790;48.806;9.140;2023-02-01T13:01:28;6.43;;;2.13;;
7497;SDS011;3790;48.806;9.140;2023-02-01T13:06:38;4.27;;;1.80;;
7497;SDS011;3790;48.806;9.140;2023-02-01T13:17:24;5.23;;;2.40;;
7497;SDS011;3790;48.806;9.140;2023-02-01T13:22:34;5.47;;;2.10;;
7497;SDS011;3790;48.806;9.140;2023-02-01T13:27:44;7.10;;;1.90;;
7497;SDS011;3790;48.806;9.140;2023-02-01T13:43:29;9.17;;;2.27;;
7497;SDS011;3790;48.806;9.140;2023-02-01T13:48:49;6.27;;;1.77;;
7497;SDS011;3790;48.806;9.140;2023-02-01T13:53:51;4.50;;;2.40;;
7497;SDS011;3790;48.806;9.140;2023-02-01T13:58:52;6.33;;;2.67;;
7497;SDS011;3790;48.806;9.140;2023-02-01T14:04:00;5.67;;;2.00;;
7497;SDS011;3790;48.806;9.140;2023-02-01T14:24:27;8.00;;;2.40;;
7497;SDS011;3790;48.806;9.140;2023-02-01T14:40:30;5.37;;;2.27;;
7497;SDS011;3790;48.806;9.140;2023-02-01T14:50:27;6.23;;;2.23;;
7497;SDS011;3790;48.806;9.140;2023-02-01T15:00:53;4.83;;;2.03;;
7497;SDS011;3790;48.806;9.140;2023-02-01T15:05:58;5.77;;;2.20;;
7497;SDS011;3790;48.806;9.140;2023-02-01T15:11:01;5.60;;;2.30;;
7497;SDS011;3790;48.806;9.140;2023-02-01T15:16:10;5.43;;;2.30;;
7497;SDS011;3790;48.806;9.140;2023-02-01T15:21:15;4.03;;;1.93;;
7497;SDS011;3790;48.806;9.140;2023-02-01T15:26:26;5.07;;;1.70;;
7497;SDS011;3790;48.806;9.140;2023-02-01T15:31:32;7.23;;;1.93;;
7497;SDS011;3790;48.806;9.140;2023-02-01T15:36:35;9.97;;;2.07;;
7497;SDS011;3790;48.806;9.140;2023-02-01T15:41:37;7.07;;;2.13;;
7497;SDS011;3790;48.806;9.140;2023-02-01T15:46:39;4.33;;;1.80;;
7497;SDS011;3790;48.806;9.140;2023-02-01T15:51:43;5.87;;;2.13;;
7497;SDS011;3790;48.806;9.140;2023-02-01T15:56:51;5.40;;;1.80;;
7497;SDS011;3790;48.806;9.140;2023-02-01T16:01:54;8.10;;;2.10;;
7497;SDS011;3790;48.806;9.140;2023-02-01T16:06:56;9.00;;;2.03;;
7497;SDS011;3790;48.806;9.140;2023-02-01T16:12:00;6.40;;;2.17;;
7497;SDS011;3790;48.806;9.140;2023-02-01T16:17:03;3.37;;;1.77;;
7497;SDS011;3790;48.806;9.140;2023-02-01T16:22:04;4.67;;;1.80;;
7497;SDS011;3790;48.806;9.140;2023-02-01T16:27:04;5.10;;;2.27;;
7497;SDS011;3790;48.806;9.140;2023-02-01T16:32:11;5.13;;;2.00;;
7497;SDS011;3790;48.806;9.140;2023-02-01T16:37:21;8.90;;;2.10;;
7497;SDS011;3790;48.806;9.140;2023-02-01T16:42:23;11.80;;;2.40;;
7497;SDS011;3790;48.806;9.140;2023-02-01T16:47:23;3.90;;;1.83;;
7497;SDS011;3790;48.806;9.140;2023-02-01T16:52:25;6.43;;;2.10;;
7497;SDS011;3790;48.806;9.140;2023-02-01T16:57:26;4.47;;;1.67;;
7497;SDS011;3790;48.806;9.140;2023-02-01T17:02:29;7.70;;;2.10;;
7497;SDS011;3790;48.806;9.140;2023-02-01T17:07:30;4.57;;;2.20;;
7497;SDS011;3790;48.806;9.140;2023-02-01T17:12:31;7.50;;;1.63;;
7497;SDS011;3790;48.806;9.140;2023-02-01T17:17:34;3.97;;;1.73;;
7497;SDS011;3790;48.806;9.140;2023-02-01T17:22:36;4.60;;;1.80;;
7497;SDS011;3790;48.806;9.140;2023-02-01T17:27:37;8.37;;;2.13;;
7497;SDS011;3790;48.806;9.140;2023-02-01T17:32:38;5.60;;;2.10;;
7497;SDS011;3790;48.806;9.140;2023-02-01T17:37:39;3.37;;;1.60;;
7497;SDS011;3790;48.806;9.140;2023-02-01T17:42:39;3.70;;;1.60;;
7497;SDS011;3790;48.806;9.140;2023-02-01T17:47:40;2.73;;;1.50;;
7497;SDS011;3790;48.806;9.140;2023-02-01T17:52:40;10.90;;;2.27;;
7497;SDS011;3790;48.806;9.140;2023-02-01T17:57:41;5.90;;;2.00;;
7497;SDS011;3790;48.806;9.140;2023-02-01T18:02:41;4.80;;;2.00;;
7497;SDS011;3790;48.806;9.140;2023-02-01T18:07:42;3.60;;;1.73;;
7497;SDS011;3790;48.806;9.140;2023-02-01T18:12:43;5.47;;;2.40;;
7497;SDS011;3790;48.806;9.140;2023-02-01T18:17:44;4.70;;;1.93;;
7497;SDS011;3790;48.806;9.140;2023-02-01T18:22:45;5.57;;;2.03;;
7497;SDS011;3790;48.806;9.140;2023-02-01T18:27:49;2.77;;;1.63;;
7497;SDS011;3790;48.806;9.140;2023-02-01T18:32:51;8.23;;;2.20;;
7497;SDS011;3790;48.806;9.140;2023-02-01T18:37:52;7.93;;;2.67;;
7497;SDS011;3790;48.806;9.140;2023-02-01T18:42:55;7.80;;;2.43;;
7497;SDS011;3790;48.806;9.140;2023-02-01T18:47:56;4.07;;;2.00;;
7497;SDS011;3790;48.806;9.140;2023-02-01T18:52:59;4.27;;;1.80;;
7497;SDS011;3790;48.806;9.140;2023-02-01T18:58:02;3.80;;;1.67;;
7497;SDS011;3790;48.806;9.140;2023-02-01T19:03:03;8.13;;;2.10;;
7497;SDS011;3790;48.806;9.140;2023-02-01T19:08:04;5.43;;;2.03;;
7497;SDS011;3790;48.806;9.140;2023-02-01T19:13:04;4.23;;;1.93;;
7497;SDS011;3790;48.806;9.140;2023-02-01T19:18:06;6.67;;;2.33;;
7497;SDS011;3790;48.806;9.140;2023-02-01T19:23:08;4.20;;;2.17;;
7497;SDS011;3790;48.806;9.140;2023-02-01T19:28:08;6.67;;;2.00;;
7497;SDS011;3790;48.806;9.140;2023-02-01T19:33:09;10.60;;;2.40;;
7497;SDS011;3790;48.806;9.140;2023-02-01T19:38:09;5.60;;;2.40;;
7497;SDS011;3790;48.806;9.140;2023-02-01T19:43:10;6.53;;;2.07;;
7497;SDS011;3790;48.806;9.140;2023-02-01T19:48:11;6.17;;;2.10;;
7497;SDS011;3790;48.806;9.140;2023-02-01T19:53:12;8.03;;;2.17;;
7497;SDS011;3790;48.806;9.140;2023-02-01T19:58:13;6.57;;;1.73;;
7497;SDS011;3790;48.806;9.140;2023-02-01T20:03:13;2.87;;;1.50;;
7497;SDS011;3790;48.806;9.140;2023-02-01T20:08:14;8.13;;;2.10;;
7497;SDS011;3790;48.806;9.140;2023-02-01T20:13:14;6.83;;;2.30;;
7497;SDS011;3790;48.806;9.140;2023-02-01T20:18:15;3.37;;;1.63;;
7497;SDS011;3790;48.806;9.140;2023-02-01T20:23:16;5.53;;;2.37;;
7497;SDS011;3790;48.806;9.140;2023-02-01T20:28:18;10.20;;;2.30;;
7497;SDS011;3790;48.806;9.140;2023-02-01T20:33:19;4.03;;;1.93;;
7497;SDS011;3790;48.806;9.140;2023-02-01T20:38:19;7.57;;;2.30;;
7497;SDS011;3790;48.806;9.140;2023-02-01T20:43:20;4.13;;;2.00;;
7497;SDS011;3790;48.806;9.140;2023-02-01T20:48:20;5.70;;;2.23;;
7497;SDS011;3790;48.806;9.140;2023-02-01T20:53:21;6.10;;;2.37;;
7497;SDS011;3790;48.806;9.140;2023-02-01T20:58:23;7.27;;;2.67;;
7497;SDS011;3790;48.806;9.140;2023-02-01T21:03:24;9.40;;;2.47;;
7497;SDS011;3790;48.806;9.140;2023-02-01T21:08:25;7.33;;;2.63;;
7497;SDS011;3790;48.806;9.140;2023-02-01T21:13:27;4.83;;;2.20;;
7497;SDS011;3790;48.806;9.140;2023-02-01T21:18:29;11.60;;;2.60;;
7497;SDS011;3790;48.806;9.140;2023-02-01T21:23:30;7.97;;;2.00;;
7497;SDS011;3790;48.806;9.140;2023-02-01T21:28:30;8.50;;;2.43;;
7497;SDS011;3790;48.806;9.140;2023-02-01T21:33:31;8.03;;;2.50;;
7497;SDS011;3790;48.806;9.140;2023-02-01T21:38:32;5.27;;;2.30;;
7497;SDS011;3790;48.806;9.140;2023-02-01T21:43:33;4.97;;;2.40;;
7497;SDS011;3790;48.806;9.140;2023-02-01T21:48:33;4.80;;;2.10;;
7497;SDS011;3790;48.806;9.140;2023-02-01T21:53:34;6.00;;;2.40;;
7497;SDS011;3790;48.806;9.140;2023-02-01T21:58:34;8.70;;;2.27;;
7497;SDS011;3790;48.806;9.140;2023-02-01T22:03:35;10.43;;;1.90;;
7497;SDS011;3790;48.806;9.140;2023-02-01T22:08:38;11.20;;;2.13;;
7497;SDS011;3790;48.806;9.140;2023-02-01T22:13:39;10.57;;;2.20;;
7497;SDS011;3790;48.806;9.140;2023-02-01T22:18:39;4.00;;;2.07;;
7497;SDS011;3790;48.806;9.140;2023-02-01T22:23:40;6.87;;;2.67;;
7497;SDS011;3790;48.806;9.140;2023-02-01T22:28:40;5.60;;;1.77;;
7497;SDS011;3790;48.806;9.140;2023-02-01T22:33:41;5.97;;;2.20;;
7497;SDS011;3790;48.806;9.140;2023-02-01T22:38:42;6.03;;;2.17;;
7497;SDS011;3790;48.806;9.140;2023-02-01T22:43:43;5.53;;;1.80;;
7497;SDS011;3790;48.806;9.140;2023-02-01T22:48:45;3.50;;;1.50;;
7497;SDS011;3790;48.806;9.140;2023-02-01T22:53:46;8.10;;;2.13;;
7497;SDS011;3790;48.806;9.140;2023-02-01T22:58:47;11.80;;;1.97;;
7497;SDS011;3790;48.806;9.140;2023-02-01T23:03:47;4.30;;;1.83;;
7497;SDS011;3790;48.806;9.140;2023-02-01T23:08:48;4.93;;;2.10;;
7497;SDS011;3790;48.806;9.140;2023-02-01T23:13:54;6.50;;;2.00;;
7497;SDS011;3790;48.806;9.140;2023-02-01T23:18:54;6.77;;;2.00;;
7497;SDS011;3790;48.806;9.140;2023-02-01T23:23:57;3.87;;;1.80;;
7497;SDS011;3790;48.806;9.140;2023-02-01T23:28:59;4.47;;;1.97;;
7497;SDS011;3790;48.806;9.140;2023-02-01T23:34:00;3.90;;;1.70;;
7497;SDS011;3790;48.806;9.140;2023-02-01T23:39:02;4.37;;;1.90;;
7497;SDS011;3790;48.806;9.140;2023-02-01T23:44:03;5.30;;;1.40;;
7497;SDS011;3790;48.806;9.140;2023-02-01T23:49:04;5.07;;;1.60;;
7497;SDS011;3790;48.806;9.140;2023-02-01T23:54:07;5.27;;;2.00;;
7497;SDS011;3790;48.806;9.140;2023-02-01T23:59:10;5.80;;;1.60;;
